Superfun — ZCCL5 — position and weather

sailwx.info

Track history (hours):
 
Tides and Currents Weather Stations Pressure Air Temp Water Temp Dewpoint Dewpoint Depression Visibility Wind Speed Wind Dir Waves Ship Positions

Superfun

Last reported at 2016-Aug-25 19:31 UTC. Time now 2016-Aug-25 20:15 UTC.
Position N 44°25' E 008°50'.

Length 40 m.

Type: Other ship. MMSI: 319163000.

Date/timePositionNaut miles runAvg speedWind from/ knotsBaromVisibWave heightAir tempDewpointWater temp
2016-Aug-25 19:31N 44°25' E 008°50'0 0.0
2016-Aug-25 18:31N 44°25' E 008°50'0 0.0
2016-Aug-25 17:31N 44°25' E 008°50'0 0.0
2016-Aug-25 16:31N 44°25' E 008°50'0 0.0
2016-Aug-25 15:31N 44°25' E 008°50'0 0.0
2016-Aug-25 14:22N 44°25' E 008°50'0 0.0
2016-Aug-25 13:25N 44°25' E 008°50'0 0.0
2016-Aug-25 12:25N 44°25' E 008°50'0 0.0
2016-Aug-25 11:10N 44°25' E 008°50'0 0.0
2016-Aug-25 10:25N 44°25' E 008°50'0 0.0
2016-Aug-25 09:28N 44°25' E 008°50'0 0.0
2016-Aug-25 08:28N 44°25' E 008°50'0 0.0
2016-Aug-25 07:31N 44°25' E 008°50'0 0.0
2016-Aug-25 06:28N 44°25' E 008°50'0 0.0
2016-Aug-25 04:31N 44°25' E 008°50'0 0.0
2016-Aug-25 03:31N 44°25' E 008°50'0 0.0
2016-Aug-25 02:31N 44°25' E 008°50'0 0.0
2016-Aug-25 01:31N 44°25' E 008°50'0 0.0
2016-Aug-25 00:22N 44°25' E 008°50'0 0.0
2016-Aug-24 23:22N 44°25' E 008°50'0 0.0
2016-Aug-24 22:22N 44°25' E 008°50'0 0.0
2016-Aug-24 21:25N 44°25' E 008°50'0 0.0
2016-Aug-24 20:25N 44°25' E 008°50'0 0.0
2016-Aug-24 19:28N 44°25' E 008°50'0 0.0
2016-Aug-24 18:28N 44°25' E 008°50'0 0.0
2016-Aug-24 17:28N 44°25' E 008°50'0 0.0
2016-Aug-24 16:31N 44°25' E 008°50'0 0.0
2016-Aug-24 15:31N 44°25' E 008°50'0 0.1
2016-Aug-24 14:30N 44°25' E 008°50'7 7.8
2016-Aug-24 13:33N 44°20' E 008°43'10 9.7
2016-Aug-24 12:33N 44°13' E 008°33'57 2.9
2016-Aug-23 16:23N 43°43' E 007°25'1 1.1
2016-Aug-23 15:33N 43°43' E 007°24'1010.1
2016-Aug-23 14:34N 43°37' E 007°13'4 4.0
2016-Aug-23 13:30N 43°35' E 007°08'0 0.0
2016-Aug-23 12:18N 43°35' E 007°08'0 0.0
2016-Aug-23 11:30N 43°35' E 007°08'2 2.1
2016-Aug-23 10:33N 43°33' E 007°09'6 2.1
2016-Aug-23 07:33N 43°32' E 007°00'  
Track history (hours):
 
Tides and Currents Weather Stations Pressure Air Temp Water Temp Dewpoint Dewpoint Depression Visibility Wind Speed Wind Dir Waves Ship Positions

Superfun

Last reported at 2016-Aug-25 19:31 UTC. Time now 2016-Aug-25 20:15 UTC.
Position N 44°25' E 008°50'.

Length 40 m.

Type: Other ship. MMSI: 319163000.

Date/timePositionNaut miles runAvg speedWind from/ knotsBaromVisibWave heightAir tempDewpointWater temp
2016-Aug-25 19:31N 44°25' E 008°50'0 0.0
2016-Aug-25 18:31N 44°25' E 008°50'0 0.0
2016-Aug-25 17:31N 44°25' E 008°50'0 0.0
2016-Aug-25 16:31N 44°25' E 008°50'0 0.0
2016-Aug-25 15:31N 44°25' E 008°50'0 0.0
2016-Aug-25 14:22N 44°25' E 008°50'0 0.0
2016-Aug-25 13:25N 44°25' E 008°50'0 0.0
2016-Aug-25 12:25N 44°25' E 008°50'0 0.0
2016-Aug-25 11:10N 44°25' E 008°50'0 0.0
2016-Aug-25 10:25N 44°25' E 008°50'0 0.0
2016-Aug-25 09:28N 44°25' E 008°50'0 0.0
2016-Aug-25 08:28N 44°25' E 008°50'0 0.0
2016-Aug-25 07:31N 44°25' E 008°50'0 0.0
2016-Aug-25 06:28N 44°25' E 008°50'0 0.0
2016-Aug-25 04:31N 44°25' E 008°50'0 0.0
2016-Aug-25 03:31N 44°25' E 008°50'0 0.0
2016-Aug-25 02:31N 44°25' E 008°50'0 0.0
2016-Aug-25 01:31N 44°25' E 008°50'0 0.0
2016-Aug-25 00:22N 44°25' E 008°50'0 0.0
2016-Aug-24 23:22N 44°25' E 008°50'0 0.0
2016-Aug-24 22:22N 44°25' E 008°50'0 0.0
2016-Aug-24 21:25N 44°25' E 008°50'0 0.0
2016-Aug-24 20:25N 44°25' E 008°50'0 0.0
2016-Aug-24 19:28N 44°25' E 008°50'0 0.0
2016-Aug-24 18:28N 44°25' E 008°50'0 0.0
2016-Aug-24 17:28N 44°25' E 008°50'0 0.0
2016-Aug-24 16:31N 44°25' E 008°50'0 0.0
2016-Aug-24 15:31N 44°25' E 008°50'0 0.1
2016-Aug-24 14:30N 44°25' E 008°50'7 7.8
2016-Aug-24 13:33N 44°20' E 008°43'10 9.7
2016-Aug-24 12:33N 44°13' E 008°33'57 2.9
2016-Aug-23 16:23N 43°43' E 007°25'1 1.1
2016-Aug-23 15:33N 43°43' E 007°24'1010.1
2016-Aug-23 14:34N 43°37' E 007°13'4 4.0
2016-Aug-23 13:30N 43°35' E 007°08'0 0.0
2016-Aug-23 12:18N 43°35' E 007°08'0 0.0
2016-Aug-23 11:30N 43°35' E 007°08'2 2.1
2016-Aug-23 10:33N 43°33' E 007°09'6 2.1
2016-Aug-23 07:33N 43°32' E 007°00'  

Dump ship's entire track history